Time;durP1;ratioP1;P1;durP2;ratioP2;P2;SDS_P1;SDS_P2;PMS_P1;PMS_P2;Temp;Humidity;BMP_temperature;BMP_pressure;BME280_temperature;BME280_humidity;BME280_pressure;Samples;Min_cycle;Max_cycle;Signal;HPM_P1;HPM_P2
2023/01/26 00:04:47;;;;;;;76.03;37.67;;;3.10;99.90;;;;;;10427369;28;21001;-87
2023/01/26 00:09:50;;;;;;;80.60;38.47;;;2.90;99.90;;;;;;10435215;28;20671;-87
2023/01/26 00:14:52;;;;;;;74.67;35.67;;;3.20;99.90;;;;;;10423416;28;20281;-86
2023/01/26 00:19:56;;;;;;;73.37;35.70;;;3.10;99.90;;;;;;10411913;28;20251;-87
2023/01/26 00:24:59;;;;;;;78.40;38.80;;;2.80;99.90;;;;;;10412492;28;20243;-87
2023/01/26 00:30:02;;;;;;;74.57;38.20;;;2.80;99.90;;;;;;10409898;28;20247;-87
2023/01/26 00:35:05;;;;;;;73.07;37.37;;;2.60;99.90;;;;;;10371672;28;20236;-87
2023/01/26 00:40:11;;;;;;;76.73;37.77;;;2.40;99.90;;;;;;10413657;28;20255;-87
2023/01/26 00:45:13;;;;;;;71.33;36.90;;;2.30;99.90;;;;;;10429589;28;20951;-87
2023/01/26 00:50:16;;;;;;;71.70;32.00;;;2.60;99.90;;;;;;10409908;28;20305;-87
2023/01/26 00:55:19;;;;;;;70.90;35.57;;;2.80;99.90;;;;;;10393744;28;20231;-87
2023/01/26 01:00:22;;;;;;;90.77;41.30;;;3.00;99.90;;;;;;10410481;28;20247;-87
2023/01/26 01:05:27;;;;;;;84.77;40.10;;;2.80;99.90;;;;;;10404299;28;20758;-86
2023/01/26 01:10:30;;;;;;;77.13;39.83;;;2.60;99.90;;;;;;10407938;28;20263;-87
2023/01/26 01:15:36;;;;;;;86.57;40.23;;;2.60;99.90;;;;;;10429879;28;20253;-87
2023/01/26 01:20:40;;;;;;;76.37;38.93;;;2.40;99.90;;;;;;10420162;28;20264;-86
2023/01/26 01:25:42;;;;;;;81.07;39.63;;;2.40;99.90;;;;;;10410698;28;20232;-87
2023/01/26 01:30:45;;;;;;;75.77;36.20;;;2.50;99.90;;;;;;10409182;28;20226;-87
2023/01/26 01:36:00;;;;;;;86.90;40.97;;;2.50;99.90;;;;;;10408504;28;20241;-87
2023/01/26 01:41:05;;;;;;;83.10;38.63;;;2.50;99.90;;;;;;10404080;28;20293;-87
2023/01/26 01:46:34;;;;;;;75.60;38.87;;;2.70;99.90;;;;;;10422566;28;20262;-87
2023/01/26 01:51:43;;;;;;;78.83;38.73;;;2.70;99.90;;;;;;10431157;28;20236;-87
2023/01/26 01:56:52;;;;;;;83.13;39.47;;;2.70;99.90;;;;;;10407776;28;20282;-87
2023/01/26 02:01:55;;;;;;;83.00;39.70;;;2.70;99.90;;;;;;10407480;28;20208;-87
2023/01/26 02:06:59;;;;;;;73.73;38.43;;;2.60;99.90;;;;;;10408941;28;20266;-87
2023/01/26 02:12:06;;;;;;;69.47;36.20;;;2.60;99.90;;;;;;10407679;28;20245;-87
2023/01/26 02:17:09;;;;;;;74.60;38.30;;;2.60;99.90;;;;;;10408178;28;20243;-87
2023/01/26 02:22:27;;;;;;;75.80;36.40;;;2.60;99.90;;;;;;10423135;28;20290;-87
2023/01/26 02:27:29;;;;;;;73.30;38.23;;;2.60;99.90;;;;;;10422606;28;20205;-87
2023/01/26 02:32:32;;;;;;;72.87;37.70;;;2.90;99.90;;;;;;10420955;28;20285;-87
2023/01/26 02:37:34;;;;;;;83.63;38.33;;;3.10;99.90;;;;;;10422659;28;20309;-87
2023/01/26 02:42:37;;;;;;;78.57;37.93;;;2.80;99.90;;;;;;10421517;28;20286;-87
2023/01/26 02:47:40;;;;;;;75.77;38.33;;;2.50;99.90;;;;;;10405246;28;20197;-87
2023/01/26 02:52:43;;;;;;;84.03;39.70;;;2.60;99.90;;;;;;10405307;28;20715;-87
2023/01/26 02:57:55;;;;;;;85.60;41.33;;;2.60;99.90;;;;;;10406136;28;20341;-87
2023/01/26 03:03:00;;;;;;;75.73;39.50;;;2.40;99.90;;;;;;10405011;28;20283;-86
2023/01/26 03:08:05;;;;;;;78.73;39.20;;;2.20;99.90;;;;;;10404480;28;20251;-87
2023/01/26 03:13:10;;;;;;;79.80;37.17;;;2.40;99.90;;;;;;10405662;28;20362;-87
2023/01/26 03:29:02;;;;;;;73.03;35.83;;;2.30;99.90;;;;;;10423759;28;20195;-87
2023/01/26 03:34:05;;;;;;;74.33;36.83;;;2.30;99.90;;;;;;10417715;28;20861;-87
2023/01/26 03:39:08;;;;;;;68.70;35.03;;;2.30;99.90;;;;;;10373923;28;20284;-87
2023/01/26 04:00:15;;;;;;;60.03;31.97;;;2.40;99.90;;;;;;10402125;28;20257;-87
2023/01/26 04:10:44;;;;;;;64.50;33.77;;;2.40;99.90;;;;;;10417192;28;20231;-87
2023/01/26 04:21:27;;;;;;;77.47;39.10;;;2.30;99.90;;;;;;10413141;28;20657;-87
2023/01/26 04:26:34;;;;;;;82.97;38.70;;;2.40;99.90;;;;;;10427029;28;20289;-87
2023/01/26 04:31:41;;;;;;;71.37;35.73;;;2.30;99.90;;;;;;10410056;28;20644;-87
2023/01/26 04:36:44;;;;;;;77.93;35.00;;;2.20;99.90;;;;;;10464197;28;20209;-87
2023/01/26 04:41:49;;;;;;;60.87;32.47;;;2.30;99.90;;;;;;10417033;28;20260;-87
2023/01/26 04:46:53;;;;;;;69.43;33.50;;;2.30;99.90;;;;;;10427034;28;20289;-87
2023/01/26 04:51:57;;;;;;;66.07;33.53;;;2.20;99.90;;;;;;10410957;28;20228;-87
2023/01/26 04:57:02;;;;;;;68.13;33.63;;;2.20;99.90;;;;;;10388099;28;20317;-87
2023/01/26 05:02:05;;;;;;;73.87;34.63;;;2.30;99.90;;;;;;10417235;28;20272;-87
2023/01/26 05:07:08;;;;;;;65.63;31.90;;;2.30;99.90;;;;;;10410003;28;20229;-87
2023/01/26 05:17:51;;;;;;;85.50;40.30;;;2.30;99.90;;;;;;10408814;28;20251;-87
2023/01/26 05:23:18;;;;;;;88.30;39.93;;;2.30;99.90;;;;;;10411614;28;20282;-88
2023/01/26 05:28:39;;;;;;;85.87;39.57;;;2.10;99.90;;;;;;10410119;28;20243;-90
2023/01/26 05:33:42;;;;;;;82.50;40.60;;;2.30;99.90;;;;;;10407893;28;20247;-89
2023/01/26 05:38:48;;;;;;;93.47;41.30;;;2.30;99.90;;;;;;10421725;28;20264;-87
2023/01/26 05:43:57;;;;;;;79.03;37.97;;;2.60;99.90;;;;;;10418546;28;20231;-87
2023/01/26 05:49:11;;;;;;;67.67;34.27;;;2.40;99.90;;;;;;10421464;28;20266;-87
2023/01/26 05:54:13;;;;;;;73.90;33.63;;;3.00;99.90;;;;;;10405843;28;20329;-86
2023/01/26 05:59:19;;;;;;;79.13;39.70;;;5.10;99.90;;;;;;10420233;28;20257;-86
2023/01/26 06:04:22;;;;;;;72.00;36.40;;;4.60;99.90;;;;;;10389694;28;20227;-86
2023/01/26 06:09:27;;;;;;;72.07;36.93;;;3.50;99.90;;;;;;10416063;28;20282;-85
2023/01/26 06:14:36;;;;;;;75.20;37.97;;;3.00;99.90;;;;;;10406593;28;20774;-86
2023/01/26 06:19:39;;;;;;;76.03;38.13;;;3.00;99.90;;;;;;10417386;28;20322;-86
2023/01/26 06:24:41;;;;;;;70.00;38.90;;;2.80;99.90;;;;;;10422458;28;20231;-86
2023/01/26 06:29:45;;;;;;;77.57;40.90;;;2.70;99.90;;;;;;10414235;28;20318;-86
2023/01/26 06:34:48;;;;;;;85.90;43.20;;;2.70;99.90;;;;;;10399306;28;20235;-86
2023/01/26 06:39:51;;;;;;;90.97;45.43;;;2.70;99.90;;;;;;10415175;28;20263;-86
2023/01/26 06:44:56;;;;;;;91.83;46.37;;;2.60;99.90;;;;;;10409923;28;20303;-86
2023/01/26 06:49:59;;;;;;;86.10;42.83;;;2.50;99.90;;;;;;10385098;28;20223;-84
2023/01/26 06:55:03;;;;;;;79.00;40.80;;;2.50;99.90;;;;;;10402429;28;20313;-85
2023/01/26 07:00:39;;;;;;;71.67;38.00;;;2.50;99.90;;;;;;10317607;28;20318;-86
2023/01/26 07:05:48;;;;;;;85.40;40.73;;;2.60;99.90;;;;;;10320223;28;21165;-85
2023/01/26 07:10:51;;;;;;;75.47;41.53;;;2.60;99.90;;;;;;10319093;28;20270;-86
2023/01/26 07:16:11;;;;;;;72.87;38.63;;;2.50;99.90;;;;;;10319802;28;20284;-86
2023/01/26 07:21:17;;;;;;;77.80;38.03;;;2.50;99.90;;;;;;10319449;28;20265;-85
2023/01/26 07:26:20;;;;;;;81.47;38.80;;;2.60;99.90;;;;;;10316590;28;20312;-85
2023/01/26 07:31:22;;;;;;;73.63;39.90;;;2.40;99.90;;;;;;10319025;28;20704;-85
2023/01/26 07:36:25;;;;;;;93.07;51.70;;;2.50;99.90;;;;;;10385335;28;20239;-85
2023/01/26 07:41:28;;;;;;;80.47;42.03;;;2.60;99.90;;;;;;10410147;28;20677;-85
2023/01/26 07:46:31;;;;;;;71.77;36.47;;;2.40;99.90;;;;;;10410675;28;20240;-85
2023/01/26 07:51:34;;;;;;;73.57;37.53;;;2.40;99.90;;;;;;10414272;28;20300;-85
2023/01/26 07:56:37;;;;;;;73.93;35.83;;;2.50;99.90;;;;;;10428332;28;20260;-86
2023/01/26 08:01:40;;;;;;;63.50;31.40;;;2.40;99.90;;;;;;10409733;28;20378;-85
2023/01/26 08:06:42;;;;;;;72.97;37.23;;;2.50;99.90;;;;;;10424869;28;20648;-87
2023/01/26 08:11:45;;;;;;;77.53;39.17;;;3.00;99.90;;;;;;10426419;28;20293;-86
2023/01/26 08:16:48;;;;;;;103.17;54.27;;;2.70;99.90;;;;;;10410209;28;20262;-86
2023/01/26 08:21:53;;;;;;;92.77;45.67;;;2.60;99.90;;;;;;10412140;28;20314;-86
2023/01/26 08:26:55;;;;;;;79.60;39.10;;;2.60;99.90;;;;;;10411479;28;20235;-87
2023/01/26 08:31:58;;;;;;;92.23;44.77;;;2.70;99.90;;;;;;10404995;28;20232;-86
2023/01/26 08:37:02;;;;;;;75.27;38.43;;;3.10;99.90;;;;;;10371645;28;20298;-86
2023/01/26 08:42:04;;;;;;;72.43;34.03;;;2.70;99.90;;;;;;10371061;28;20310;-87
2023/01/26 08:47:07;;;;;;;69.70;33.13;;;2.60;99.90;;;;;;10376400;28;20235;-87
2023/01/26 08:52:09;;;;;;;62.30;34.37;;;2.70;99.90;;;;;;10425225;28;20297;-87
2023/01/26 08:57:12;;;;;;;71.30;37.03;;;3.30;99.90;;;;;;10411383;28;20263;-87
2023/01/26 09:02:15;;;;;;;74.53;37.63;;;3.20;99.90;;;;;;10410357;28;20259;-86
2023/01/26 09:07:17;;;;;;;66.10;33.13;;;3.00;99.90;;;;;;10410850;28;20231;-86
2023/01/26 09:12:20;;;;;;;59.77;30.03;;;3.10;99.90;;;;;;10408856;28;20671;-86
2023/01/26 09:17:23;;;;;;;57.80;29.90;;;3.30;99.90;;;;;;10381900;28;20776;-86
2023/01/26 09:22:25;;;;;;;54.60;27.97;;;3.40;99.90;;;;;;10412056;28;20329;-85
2023/01/26 09:27:28;;;;;;;73.23;34.47;;;3.80;99.90;;;;;;10409202;28;20236;-86
2023/01/26 09:32:31;;;;;;;62.97;30.40;;;4.10;99.90;;;;;;10406828;28;20235;-86
2023/01/26 09:37:33;;;;;;;51.83;26.23;;;3.30;99.90;;;;;;10404828;28;20231;-87
2023/01/26 09:42:48;;;;;;;53.97;27.40;;;3.20;99.90;;;;;;10402466;28;20252;-86
2023/01/26 09:48:16;;;;;;;50.83;24.50;;;3.10;99.90;;;;;;10394677;28;20629;-86
2023/01/26 09:53:27;;;;;;;58.83;27.47;;;3.50;99.90;;;;;;10410013;28;20664;-86
2023/01/26 09:58:41;;;;;;;51.30;22.50;;;3.50;99.90;;;;;;10401414;28;21092;-86
2023/01/26 10:03:52;;;;;;;41.10;22.63;;;3.50;99.90;;;;;;10398934;28;20231;-86
2023/01/26 10:08:58;;;;;;;50.90;26.60;;;3.50;99.90;;;;;;10421319;28;20265;-86
2023/01/26 10:14:10;;;;;;;44.97;24.07;;;4.40;99.90;;;;;;10380379;28;20232;-86
2023/01/26 10:19:30;;;;;;;49.93;23.67;;;4.10;99.90;;;;;;10348609;28;20271;-86
2023/01/26 10:24:33;;;;;;;44.10;23.97;;;4.40;99.90;;;;;;10402079;28;20231;-86
2023/01/26 10:29:36;;;;;;;46.63;23.60;;;4.30;99.90;;;;;;10405406;28;20266;-86
2023/01/26 10:34:41;;;;;;;43.17;22.80;;;4.00;99.90;;;;;;10401513;28;20240;-86
2023/01/26 10:40:00;;;;;;;40.70;21.30;;;4.10;99.90;;;;;;10420404;28;20630;-86
2023/01/26 10:45:29;;;;;;;42.40;21.07;;;4.20;99.90;;;;;;10416029;28;20231;-87
2023/01/26 10:50:32;;;;;;;42.63;22.77;;;4.30;99.90;;;;;;10416706;28;20231;-86
2023/01/26 10:55:36;;;;;;;47.03;24.43;;;4.50;99.90;;;;;;10396619;28;20325;-86
2023/01/26 11:00:40;;;;;;;47.70;24.77;;;4.60;99.90;;;;;;10417069;28;20251;-86
2023/01/26 11:05:45;;;;;;;48.33;25.83;;;4.50;99.90;;;;;;10403527;28;20223;-86
2023/01/26 11:10:52;;;;;;;46.53;22.20;;;4.40;99.90;;;;;;10402975;28;20238;-87
2023/01/26 11:16:21;;;;;;;50.63;31.80;;;4.20;99.90;;;;;;10419074;28;21013;-87
2023/01/26 11:21:33;;;;;;;47.20;23.90;;;4.20;99.90;;;;;;10423916;28;20262;-86
2023/01/26 11:26:56;;;;;;;38.83;20.60;;;4.20;99.90;;;;;;10404022;28;20583;-86
2023/01/26 11:31:58;;;;;;;39.87;20.70;;;4.10;99.90;;;;;;10418225;28;20293;-86
2023/01/26 11:37:35;;;;;;;39.77;21.13;;;4.00;99.90;;;;;;10379394;28;20696;-86
2023/01/26 11:42:44;;;;;;;43.07;21.40;;;5.60;99.90;;;;;;10403060;28;20763;-86
2023/01/26 11:47:59;;;;;;;42.23;21.00;;;5.10;99.90;;;;;;10400985;28;20239;-86
2023/01/26 11:53:23;;;;;;;42.03;22.33;;;4.70;99.90;;;;;;10404094;28;20956;-86
2023/01/26 11:58:26;;;;;;;42.63;23.90;;;4.30;99.90;;;;;;10403481;28;20775;-86
2023/01/26 12:03:49;;;;;;;43.73;21.83;;;3.90;99.90;;;;;;10400769;28;20294;-84
2023/01/26 12:09:17;;;;;;;43.77;21.93;;;3.80;99.90;;;;;;10393082;28;20232;-78
2023/01/26 12:14:39;;;;;;;52.07;25.83;;;5.50;99.90;;;;;;10419055;28;20639;-78
2023/01/26 12:20:03;;;;;;;39.40;21.80;;;5.00;99.90;;;;;;10404211;28;20250;-78
2023/01/26 12:25:33;;;;;;;48.43;24.73;;;4.50;99.90;;;;;;10419146;28;20269;-78
2023/01/26 12:30:47;;;;;;;86.40;37.00;;;4.30;99.90;;;;;;10410081;28;20243;-78
2023/01/26 12:36:02;;;;;;;40.70;20.40;;;4.30;99.90;;;;;;10371447;28;20751;-78
2023/01/26 12:41:21;;;;;;;38.40;21.20;;;4.30;99.90;;;;;;10372618;28;20254;-78
2023/01/26 12:46:27;;;;;;;39.23;19.67;;;4.20;99.90;;;;;;10411152;28;20231;-78
2023/01/26 12:51:37;;;;;;;40.40;21.37;;;4.10;99.90;;;;;;10407950;28;20239;-78
2023/01/26 12:56:52;;;;;;;42.50;20.67;;;3.70;99.90;;;;;;10406337;28;20316;-78
2023/01/26 13:01:55;;;;;;;43.20;22.93;;;3.50;99.90;;;;;;10409522;28;20324;-78
2023/01/26 13:07:07;;;;;;;47.80;23.57;;;3.60;99.90;;;;;;10406631;28;20290;-77
2023/01/26 13:12:56;;;;;;;45.90;23.40;;;3.60;99.90;;;;;;10424301;28;20239;-78
2023/01/26 13:18:03;;;;;;;41.67;20.07;;;3.50;99.90;;;;;;10385747;28;20990;-78
2023/01/26 13:23:40;;;;;;;38.40;21.23;;;3.10;99.90;;;;;;10397502;28;20306;-78
2023/01/26 13:28:45;;;;;;;40.67;22.17;;;3.20;99.90;;;;;;10391549;28;20223;-77
2023/01/26 13:33:48;;;;;;;43.57;19.97;;;3.30;99.90;;;;;;10409183;28;20254;-78
2023/01/26 13:38:58;;;;;;;34.13;18.30;;;3.20;99.90;;;;;;10406527;28;20243;-78
2023/01/26 13:44:19;;;;;;;43.97;21.33;;;3.60;99.90;;;;;;10408291;28;20308;-78
2023/01/26 13:49:35;;;;;;;39.80;21.47;;;3.60;99.90;;;;;;10394570;28;20224;-78
2023/01/26 13:54:41;;;;;;;33.77;18.27;;;3.80;99.90;;;;;;10406624;28;20699;-78
2023/01/26 13:59:51;;;;;;;40.90;20.83;;;3.80;99.90;;;;;;10406115;28;20243;-78
2023/01/26 14:04:56;;;;;;;39.30;20.17;;;3.60;99.90;;;;;;10408157;28;20243;-77
2023/01/26 14:10:00;;;;;;;43.80;20.73;;;3.30;99.90;;;;;;10405793;28;20247;-78
2023/01/26 14:15:06;;;;;;;43.00;21.47;;;3.00;99.90;;;;;;10405205;28;20731;-78
2023/01/26 14:20:24;;;;;;;45.80;21.77;;;3.20;99.90;;;;;;10405537;28;20779;-78
2023/01/26 14:25:26;;;;;;;54.07;24.57;;;3.10;99.90;;;;;;10419446;28;20232;-78
2023/01/26 14:30:34;;;;;;;54.17;23.47;;;3.40;99.90;;;;;;10415866;28;20520;-78
2023/01/26 14:35:37;;;;;;;48.73;24.33;;;3.30;99.90;;;;;;10402117;28;20246;-78
2023/01/26 14:40:50;;;;;;;51.70;24.63;;;3.10;99.90;;;;;;10380272;28;20336;-78
2023/01/26 14:46:08;;;;;;;34.67;17.47;;;3.40;99.90;;;;;;10400804;28;20301;-78
2023/01/26 14:51:20;;;;;;;47.07;23.50;;;3.40;99.90;;;;;;10391827;28;20236;-78
2023/01/26 14:56:32;;;;;;;38.43;18.90;;;3.30;99.90;;;;;;10417925;28;20734;-79
2023/01/26 15:01:35;;;;;;;32.53;17.17;;;3.10;99.90;;;;;;10402760;28;20312;-78
2023/01/26 15:06:38;;;;;;;50.07;25.50;;;4.50;99.90;;;;;;10404183;28;20737;-79
2023/01/26 15:17:03;;;;;;;63.13;29.90;;;3.70;99.90;;;;;;10419686;28;20639;-78
2023/01/26 15:22:19;;;;;;;60.07;28.77;;;3.60;99.90;;;;;;10429690;28;20296;-78
2023/01/26 15:27:22;;;;;;;45.83;24.30;;;3.50;99.90;;;;;;10411248;28;20338;-78
2023/01/26 15:32:29;;;;;;;50.30;23.70;;;3.40;99.90;;;;;;10392595;28;20243;-78
2023/01/26 15:37:33;;;;;;;49.47;25.50;;;2.90;99.90;;;;;;10381690;28;20258;-78
2023/01/26 15:42:36;;;;;;;51.27;20.40;;;2.90;99.90;;;;;;10394128;28;20254;-78
2023/01/26 15:47:38;;;;;;;63.90;26.50;;;2.70;99.90;;;;;;10401560;28;20211;-78
2023/01/26 15:52:41;;;;;;;47.40;22.37;;;2.80;99.90;;;;;;10398710;28;20693;-78
2023/01/26 15:57:44;;;;;;;52.53;23.97;;;2.50;99.90;;;;;;10403050;28;20317;-78
2023/01/26 16:02:47;;;;;;;84.20;34.67;;;2.30;99.90;;;;;;10408270;28;20304;-78
2023/01/26 16:07:49;;;;;;;61.77;25.73;;;2.20;99.90;;;;;;10406062;28;20280;-78
2023/01/26 16:12:55;;;;;;;24.07;12.97;;;2.30;99.90;;;;;;10424075;28;20243;-77
2023/01/26 16:17:57;;;;;;;53.60;27.43;;;3.40;99.90;;;;;;10426057;28;20247;-78
2023/01/26 16:23:00;;;;;;;58.90;30.00;;;5.50;99.90;;;;;;10410360;28;20251;-78
2023/01/26 16:28:02;;;;;;;59.23;31.53;;;5.30;99.90;;;;;;10414183;28;20256;-78
2023/01/26 16:33:06;;;;;;;61.13;31.40;;;5.60;99.90;;;;;;10410764;28;20758;-78
2023/01/26 16:38:12;;;;;;;50.53;25.33;;;5.40;99.90;;;;;;10411846;28;20274;-78
2023/01/26 16:43:22;;;;;;;46.27;26.17;;;5.40;99.90;;;;;;10410919;28;20329;-78
2023/01/26 16:48:30;;;;;;;45.23;23.33;;;5.20;99.90;;;;;;10394060;28;20622;-78
2023/01/26 16:53:33;;;;;;;47.50;25.67;;;5.00;99.90;;;;;;10411826;28;20683;-78
2023/01/26 16:58:36;;;;;;;49.77;25.37;;;4.50;99.90;;;;;;10411404;28;20662;-77
2023/01/26 17:03:38;;;;;;;39.00;20.97;;;3.70;99.90;;;;;;10410537;28;20259;-78
2023/01/26 17:08:42;;;;;;;42.73;22.23;;;3.40;99.90;;;;;;10410372;28;20258;-78
2023/01/26 17:13:45;;;;;;;49.47;29.33;;;3.20;99.90;;;;;;10410694;28;20230;-78
2023/01/26 17:18:48;;;;;;;49.97;25.97;;;3.00;99.90;;;;;;10409973;28;20277;-78
2023/01/26 17:23:53;;;;;;;47.87;25.53;;;2.80;99.90;;;;;;10408883;28;20273;-78
2023/01/26 17:28:55;;;;;;;57.83;28.13;;;2.80;99.90;;;;;;10409838;28;20290;-78
2023/01/26 17:33:58;;;;;;;51.83;25.00;;;3.00;99.90;;;;;;10409335;28;20243;-78
2023/01/26 17:39:01;;;;;;;39.63;20.80;;;3.00;99.90;;;;;;10390609;28;20306;-78
2023/01/26 17:44:03;;;;;;;44.90;22.73;;;2.40;99.90;;;;;;10390432;28;20795;-78
2023/01/26 17:49:06;;;;;;;51.20;25.17;;;2.70;99.90;;;;;;9712268;28;10000392;-78
2023/01/26 17:54:09;;;;;;;46.43;23.00;;;2.60;99.90;;;;;;10405465;28;20264;-78
2023/01/26 17:59:11;;;;;;;45.83;23.63;;;2.60;99.90;;;;;;10419634;28;20254;-79
2023/01/26 18:04:14;;;;;;;44.23;22.97;;;2.50;99.90;;;;;;10372039;28;20295;-78
2023/01/26 18:09:16;;;;;;;46.93;23.80;;;2.60;99.90;;;;;;10404679;28;20632;-78
2023/01/26 18:14:19;;;;;;;44.33;21.67;;;2.50;99.90;;;;;;10403912;28;20702;-78
2023/01/26 18:19:22;;;;;;;45.40;22.40;;;2.40;99.90;;;;;;10400709;28;20239;-78
2023/01/26 18:24:24;;;;;;;44.17;22.43;;;2.40;99.90;;;;;;10405488;28;20743;-78
2023/01/26 18:29:27;;;;;;;41.97;21.67;;;2.50;99.90;;;;;;10403400;28;20250;-78
2023/01/26 18:34:29;;;;;;;45.13;22.20;;;2.50;99.90;;;;;;10399039;28;20312;-78
2023/01/26 18:39:32;;;;;;;42.93;21.43;;;2.40;99.90;;;;;;10404399;28;20251;-78
2023/01/26 18:44:35;;;;;;;44.10;21.53;;;2.20;99.90;;;;;;10401199;28;20259;-78
2023/01/26 18:49:37;;;;;;;37.97;19.70;;;2.10;99.90;;;;;;10420869;28;20285;-78
2023/01/26 18:54:41;;;;;;;42.47;21.57;;;2.90;99.90;;;;;;10396634;28;20247;-79
2023/01/26 18:59:44;;;;;;;43.67;23.10;;;4.20;99.90;;;;;;10405497;28;20317;-78
2023/01/26 19:04:47;;;;;;;44.97;22.83;;;4.10;99.90;;;;;;10406927;28;20318;-79
2023/01/26 19:09:50;;;;;;;50.70;28.13;;;4.10;99.90;;;;;;10421095;28;20243;-78
2023/01/26 19:14:52;;;;;;;65.87;34.53;;;3.70;99.90;;;;;;10406306;28;20292;-78
2023/01/26 19:19:55;;;;;;;57.23;28.50;;;2.80;99.90;;;;;;10406936;28;20243;-78
2023/01/26 19:24:57;;;;;;;58.87;27.47;;;2.90;99.90;;;;;;10406708;28;20777;-78
2023/01/26 19:30:00;;;;;;;53.60;27.97;;;3.20;99.90;;;;;;10406508;28;20235;-78
2023/01/26 19:35:03;;;;;;;45.93;24.20;;;3.30;99.90;;;;;;10408665;28;20658;-79
2023/01/26 19:40:07;;;;;;;49.10;27.30;;;3.40;99.90;;;;;;10415062;28;20288;-79
2023/01/26 19:45:09;;;;;;;69.90;36.50;;;3.50;99.90;;;;;;10414599;28;20252;-78
2023/01/26 19:50:13;;;;;;;66.47;37.63;;;3.20;99.90;;;;;;10410039;28;20639;-78
2023/01/26 19:55:15;;;;;;;68.03;35.57;;;3.00;99.90;;;;;;10409949;28;20260;-79
2023/01/26 20:00:19;;;;;;;61.23;33.93;;;2.90;99.90;;;;;;10427395;28;20250;-80
2023/01/26 20:05:21;;;;;;;54.50;28.77;;;2.70;99.90;;;;;;10411930;28;20275;-79
2023/01/26 20:10:24;;;;;;;62.83;33.70;;;2.60;99.90;;;;;;10407710;28;20247;-80
2023/01/26 20:15:26;;;;;;;57.87;28.67;;;2.50;99.90;;;;;;10411390;28;20251;-79
2023/01/26 20:20:29;;;;;;;55.60;30.37;;;2.40;99.90;;;;;;10410998;28;20281;-79
2023/01/26 20:25:35;;;;;;;63.07;32.13;;;2.60;99.90;;;;;;10411969;28;20247;-79
2023/01/26 20:30:40;;;;;;;60.73;31.10;;;2.60;99.90;;;;;;10407908;28;20224;-79
2023/01/26 20:35:43;;;;;;;74.00;38.33;;;2.60;99.90;;;;;;10392160;28;20282;-80
2023/01/26 20:40:46;;;;;;;48.87;26.57;;;2.60;99.90;;;;;;10062495;28;10000340;-79
2023/01/26 20:45:51;;;;;;;54.27;30.33;;;2.60;99.90;;;;;;10421750;28;20311;-79
2023/01/26 20:50:54;;;;;;;56.57;31.57;;;2.50;99.90;;;;;;10407642;28;20297;-80
2023/01/26 20:55:57;;;;;;;59.53;33.20;;;2.40;99.90;;;;;;10408933;28;20298;-79
2023/01/26 21:01:09;;;;;;;61.57;33.60;;;2.40;99.90;;;;;;10408355;28;20305;-79
2023/01/26 21:06:14;;;;;;;53.80;29.83;;;2.40;99.90;;;;;;10405647;28;20271;-79
2023/01/26 21:11:17;;;;;;;52.93;27.20;;;2.70;99.90;;;;;;10408447;28;20239;-79
2023/01/26 21:16:22;;;;;;;60.40;32.43;;;2.90;99.90;;;;;;10408893;28;20245;-79
2023/01/26 21:21:27;;;;;;;53.37;29.17;;;2.90;99.90;;;;;;10394341;28;20323;-80
2023/01/26 21:26:31;;;;;;;57.07;28.57;;;2.90;99.90;;;;;;10393665;28;20287;-79
2023/01/26 21:31:34;;;;;;;60.07;27.37;;;2.70;99.90;;;;;;10406735;28;20231;-80
2023/01/26 21:36:37;;;;;;;51.33;23.87;;;2.50;99.90;;;;;;10403070;28;20232;-79
2023/01/26 21:41:54;;;;;;;51.77;25.20;;;2.50;99.90;;;;;;10409009;28;20262;-80
2023/01/26 21:47:00;;;;;;;58.53;28.37;;;2.40;99.90;;;;;;10399045;28;20301;-80
2023/01/26 22:02:45;;;;;;;42.57;20.20;;;2.10;99.90;;;;;;10406440;28;20235;-79
2023/01/26 22:07:48;;;;;;;50.20;23.83;;;2.40;99.90;;;;;;10406553;28;20263;-79
2023/01/26 22:12:51;;;;;;;49.73;22.10;;;2.40;99.90;;;;;;10404010;28;20704;-80
2023/01/26 22:17:53;;;;;;;61.60;29.43;;;2.70;99.90;;;;;;10403264;28;20240;-79
2023/01/26 22:22:56;;;;;;;63.93;32.43;;;2.60;99.90;;;;;;10407550;28;20297;-79
2023/01/26 22:27:58;;;;;;;65.70;29.77;;;2.60;99.90;;;;;;10406090;28;20689;-79
2023/01/26 22:33:01;;;;;;;62.40;26.53;;;2.40;99.90;;;;;;10389807;28;20704;-79
2023/01/26 22:38:03;;;;;;;53.50;24.93;;;2.10;99.90;;;;;;10403886;28;20243;-80
2023/01/26 22:43:07;;;;;;;51.93;25.17;;;2.10;99.90;;;;;;10419292;28;20281;-79
2023/01/26 22:48:10;;;;;;;52.03;25.03;;;2.10;99.90;;;;;;10385635;28;20631;-79
2023/01/26 22:53:13;;;;;;;60.70;28.77;;;2.30;99.90;;;;;;10404664;28;20293;-78
2023/01/26 22:58:16;;;;;;;56.27;28.57;;;2.50;99.90;;;;;;10403463;28;20305;-79
2023/01/26 23:03:18;;;;;;;59.10;28.30;;;2.80;99.90;;;;;;10404691;28;20243;-79
2023/01/26 23:08:21;;;;;;;52.23;26.40;;;2.60;99.90;;;;;;10405395;28;20224;-79
2023/01/26 23:13:24;;;;;;;49.87;23.47;;;2.60;99.90;;;;;;10405315;28;20393;-80
2023/01/26 23:18:26;;;;;;;60.90;27.23;;;2.60;99.90;;;;;;10407586;28;20250;-79
2023/01/26 23:23:29;;;;;;;51.83;23.43;;;2.50;99.90;;;;;;10407133;28;20259;-79
2023/01/26 23:28:35;;;;;;;59.23;26.00;;;2.80;99.90;;;;;;10406675;28;20903;-78
2023/01/26 23:33:38;;;;;;;57.63;27.10;;;2.90;99.90;;;;;;10406984;28;20289;-79
2023/01/26 23:38:41;;;;;;;62.80;28.43;;;3.00;99.90;;;;;;10422465;28;20228;-79
2023/01/26 23:43:44;;;;;;;56.07;24.53;;;2.70;99.90;;;;;;10406772;28;20880;-79
2023/01/26 23:48:46;;;;;;;52.73;25.57;;;2.70;99.90;;;;;;10391816;28;20239;-79
2023/01/26 23:53:49;;;;;;;49.47;23.37;;;2.90;99.90;;;;;;10380396;28;20674;-78
2023/01/26 23:58:51;;;;;;;55.90;24.20;;;3.20;99.90;;;;;;10311660;28;20637;-79
